Time;durP1;ratioP1;P1;durP2;ratioP2;P2;SDS_P1;SDS_P2;PMS_P1;PMS_P2;Temp;Humidity;BMP_temperature;BMP_pressure;BME280_temperature;BME280_humidity;BME280_pressure;Samples;Min_cycle;Max_cycle;Signal;HPM_P1;HPM_P2
2022/04/30 00:00:44;;;;;;;1.88;0.90;;;18.80;40.80;;;;;;5038650;28;20186;-87
2022/04/30 00:03:10;;;;;;;2.95;0.90;;;18.80;40.90;;;;;;5037644;28;20552;-86
2022/04/30 00:05:39;;;;;;;1.77;1.10;;;18.80;40.90;;;;;;5038576;28;20172;-89
2022/04/30 00:08:08;;;;;;;1.17;1.00;;;18.80;40.90;;;;;;5037872;28;20182;-88
2022/04/30 00:10:38;;;;;;;1.40;1.02;;;18.80;41.00;;;;;;5037820;28;20182;-88
2022/04/30 00:13:10;;;;;;;1.52;0.95;;;18.80;40.90;;;;;;5021474;28;20182;-85
2022/04/30 00:15:39;;;;;;;1.40;1.00;;;18.80;40.90;;;;;;5021842;28;20189;-87
2022/04/30 00:18:06;;;;;;;2.33;1.02;;;18.80;41.00;;;;;;5037610;28;20182;-87
2022/04/30 00:20:36;;;;;;;1.40;1.00;;;18.80;41.00;;;;;;5038957;28;20204;-87
2022/04/30 00:23:03;;;;;;;1.10;1.00;;;18.80;40.90;;;;;;5038470;28;20640;-87
2022/04/30 00:25:33;;;;;;;2.05;1.00;;;18.80;41.20;;;;;;5021846;28;20235;-87
2022/04/30 00:27:58;;;;;;;1.48;0.93;;;18.80;41.10;;;;;;5055006;28;20163;-85
2022/04/30 00:30:25;;;;;;;1.30;1.00;;;18.80;41.10;;;;;;5038499;28;20174;-85
2022/04/30 00:32:53;;;;;;;2.08;1.00;;;18.80;41.10;;;;;;5053568;28;20170;-85
2022/04/30 00:35:20;;;;;;;1.83;0.70;;;18.80;41.20;;;;;;5054505;28;20202;-87
2022/04/30 00:37:47;;;;;;;1.88;1.15;;;18.80;41.20;;;;;;5054378;28;20548;-86
2022/04/30 00:40:16;;;;;;;1.02;0.90;;;18.70;41.10;;;;;;5037829;28;20259;-85
2022/04/30 00:42:45;;;;;;;1.15;0.90;;;18.80;41.20;;;;;;5020810;28;20186;-85
2022/04/30 00:45:16;;;;;;;1.75;0.98;;;18.80;41.20;;;;;;5037191;28;20192;-85
2022/04/30 00:47:46;;;;;;;1.15;1.00;;;18.80;41.20;;;;;;5021104;28;20182;-85
2022/04/30 00:50:15;;;;;;;1.05;0.90;;;18.80;41.20;;;;;;5037218;28;20278;-85
2022/04/30 00:52:58;;;;;;;1.40;0.95;;;18.70;41.20;;;;;;5038105;28;20261;-88
2022/04/30 00:55:29;;;;;;;1.45;1.10;;;18.70;41.10;;;;;;5032423;28;20228;-86
2022/04/30 00:58:01;;;;;;;1.42;0.98;;;18.80;41.30;;;;;;4984227;28;20679;-87
2022/04/30 01:00:27;;;;;;;2.33;1.25;;;18.70;41.30;;;;;;4968883;28;20705;-87
2022/04/30 01:02:52;;;;;;;1.30;1.08;;;18.70;41.20;;;;;;5000525;28;20158;-88
2022/04/30 01:05:22;;;;;;;1.60;0.85;;;18.70;41.30;;;;;;5016862;28;20178;-87
2022/04/30 01:07:53;;;;;;;1.20;1.00;;;18.70;41.20;;;;;;4968319;28;20179;-86
2022/04/30 01:10:23;;;;;;;1.40;1.10;;;18.70;41.20;;;;;;4967944;28;20240;-85
2022/04/30 01:12:48;;;;;;;1.45;0.98;;;18.70;41.40;;;;;;4968301;28;20197;-87
2022/04/30 01:15:14;;;;;;;1.15;1.02;;;18.70;41.30;;;;;;5000063;28;20186;-85
2022/04/30 01:17:42;;;;;;;1.08;0.98;;;18.70;41.30;;;;;;5000397;28;20163;-88
2022/04/30 01:20:08;;;;;;;2.45;0.98;;;18.70;41.40;;;;;;4983866;28;20328;-87
2022/04/30 01:22:36;;;;;;;2.08;1.10;;;18.70;41.40;;;;;;5000400;28;20579;-87
2022/04/30 01:25:03;;;;;;;1.55;1.13;;;18.70;41.20;;;;;;4999795;28;20241;-85
2022/04/30 01:27:30;;;;;;;0.90;0.90;;;18.70;41.30;;;;;;4999346;28;20185;-86
2022/04/30 01:29:58;;;;;;;2.50;1.13;;;18.70;41.30;;;;;;4999869;28;20668;-86
2022/04/30 01:38:03;;;;;;;1.60;1.00;;;18.70;41.50;;;;;;5034726;28;20202;-85
2022/04/30 01:40:29;;;;;;;2.53;1.10;;;18.70;41.50;;;;;;5020168;28;20221;-87
2022/04/30 01:43:01;;;;;;;1.33;0.80;;;18.70;41.60;;;;;;5019872;28;20158;-85
2022/04/30 01:45:34;;;;;;;1.23;0.95;;;18.60;41.50;;;;;;5019688;28;20218;-85
2022/04/30 01:48:03;;;;;;;1.00;0.90;;;18.70;41.50;;;;;;5036175;28;20186;-86
2022/04/30 01:50:34;;;;;;;1.60;1.00;;;18.70;41.50;;;;;;5036172;28;20190;-88
2022/04/30 01:53:03;;;;;;;1.80;1.05;;;18.70;41.60;;;;;;5036408;28;20296;-86
2022/04/30 01:55:35;;;;;;;1.73;0.90;;;18.70;41.70;;;;;;5035989;28;20209;-87
2022/04/30 01:58:05;;;;;;;0.90;0.80;;;18.70;41.60;;;;;;5035749;28;20182;-87
2022/04/30 02:00:32;;;;;;;1.05;0.95;;;18.60;41.60;;;;;;5036033;28;20217;-85
2022/04/30 02:03:03;;;;;;;1.48;1.10;;;18.60;41.60;;;;;;5036232;28;20198;-89
2022/04/30 02:05:30;;;;;;;1.10;0.80;;;18.60;41.60;;;;;;5036656;28;20170;-87
2022/04/30 02:08:03;;;;;;;1.13;0.85;;;18.60;41.70;;;;;;5019623;28;20170;-90
2022/04/30 02:10:30;;;;;;;1.05;0.82;;;18.50;41.60;;;;;;5052881;28;20193;-85
2022/04/30 02:12:57;;;;;;;2.05;1.17;;;18.60;41.70;;;;;;5052762;28;20162;-87
2022/04/30 02:15:23;;;;;;;2.30;1.00;;;18.50;41.70;;;;;;5036147;28;20233;-88
2022/04/30 02:17:50;;;;;;;1.42;1.10;;;18.60;41.70;;;;;;5036371;28;20252;-88
2022/04/30 02:20:19;;;;;;;0.93;0.85;;;18.60;41.70;;;;;;5035912;28;20194;-87
2022/04/30 02:22:45;;;;;;;1.60;0.90;;;18.60;41.70;;;;;;5052632;28;20151;-86
2022/04/30 02:25:15;;;;;;;1.98;1.08;;;18.60;41.70;;;;;;5036131;28;20165;-85
2022/04/30 02:27:44;;;;;;;1.10;0.90;;;18.60;41.80;;;;;;5052605;28;20148;-89
2022/04/30 02:30:14;;;;;;;1.35;1.00;;;18.60;41.70;;;;;;5036005;28;20166;-88
2022/04/30 02:32:42;;;;;;;1.30;1.00;;;18.60;41.70;;;;;;5035923;28;20261;-86
2022/04/30 02:35:09;;;;;;;1.02;0.88;;;18.60;41.90;;;;;;5036134;28;20162;-87
2022/04/30 02:37:36;;;;;;;1.55;1.00;;;18.60;41.70;;;;;;5052659;28;20146;-88
2022/04/30 02:40:06;;;;;;;1.20;0.90;;;18.60;41.90;;;;;;5035236;28;20221;-86
2022/04/30 02:42:34;;;;;;;1.02;0.93;;;18.60;41.90;;;;;;5018665;28;20181;-88
2022/04/30 02:45:01;;;;;;;1.42;1.25;;;18.60;41.90;;;;;;5018624;28;20632;-86
2022/04/30 02:47:31;;;;;;;1.23;0.77;;;18.50;41.90;;;;;;5035093;28;20217;-85
2022/04/30 02:50:03;;;;;;;1.20;1.00;;;18.50;41.90;;;;;;5035011;28;20186;-87
2022/04/30 02:52:30;;;;;;;2.00;0.90;;;18.60;42.00;;;;;;5035061;28;20178;-89
2022/04/30 02:55:00;;;;;;;1.70;1.10;;;18.50;41.90;;;;;;5034402;28;20193;-88
2022/04/30 02:57:37;;;;;;;1.20;1.00;;;18.50;42.00;;;;;;5018711;28;20652;-87
2022/04/30 03:00:09;;;;;;;1.98;0.98;;;18.60;41.90;;;;;;5018486;28;20217;-85
2022/04/30 03:02:35;;;;;;;2.47;1.10;;;18.50;42.00;;;;;;5001794;28;20637;-86
2022/04/30 03:05:02;;;;;;;2.40;0.82;;;18.50;42.00;;;;;;5016010;28;20198;-85
2022/04/30 03:07:28;;;;;;;1.55;1.00;;;18.50;42.00;;;;;;5032179;28;20652;-90
2022/04/30 03:09:55;;;;;;;0.82;0.82;;;18.50;41.90;;;;;;5031688;28;20212;-86
2022/04/30 03:12:21;;;;;;;1.00;0.82;;;18.50;42.00;;;;;;5015813;28;20174;-87
2022/04/30 03:14:49;;;;;;;1.80;0.98;;;18.50;42.10;;;;;;5015870;28;20155;-87
2022/04/30 03:22:33;;;;;;;1.55;0.90;;;18.50;42.20;;;;;;5033220;28;20154;-84
2022/04/30 03:25:03;;;;;;;1.52;0.90;;;18.50;42.20;;;;;;5016078;28;20571;-88
2022/04/30 03:27:34;;;;;;;1.10;1.00;;;18.50;42.20;;;;;;4982371;28;20218;-87
2022/04/30 03:30:02;;;;;;;1.48;1.00;;;18.50;42.10;;;;;;4998842;28;20194;-88
2022/04/30 03:32:32;;;;;;;0.80;0.80;;;18.50;42.10;;;;;;4998324;28;20236;-88
2022/04/30 03:35:04;;;;;;;1.65;0.93;;;18.50;42.30;;;;;;4998716;28;20182;-87
2022/04/30 03:37:32;;;;;;;1.50;0.85;;;18.50;42.20;;;;;;4999325;28;20277;-88
2022/04/30 03:39:59;;;;;;;1.13;1.00;;;18.50;42.40;;;;;;4998339;28;20681;-85
2022/04/30 03:42:26;;;;;;;1.45;0.95;;;18.50;42.30;;;;;;4998828;28;20692;-86
2022/04/30 03:44:53;;;;;;;1.58;0.90;;;18.50;42.30;;;;;;5032077;28;20155;-85
2022/04/30 03:47:21;;;;;;;1.10;0.95;;;18.50;42.40;;;;;;5015617;28;20171;-87
2022/04/30 03:49:47;;;;;;;1.20;1.02;;;18.40;42.20;;;;;;5031896;28;20183;-86
2022/04/30 03:52:13;;;;;;;1.15;0.80;;;18.50;42.30;;;;;;5015467;28;20163;-85
2022/04/30 03:54:39;;;;;;;0.98;0.90;;;18.40;42.10;;;;;;5033039;28;20683;-87
2022/04/30 03:57:06;;;;;;;1.48;0.95;;;18.50;42.30;;;;;;5015644;28;20167;-84
2022/04/30 03:59:32;;;;;;;1.25;0.90;;;18.50;42.20;;;;;;4999193;28;20163;-87
2022/04/30 04:01:58;;;;;;;1.10;0.90;;;18.50;42.30;;;;;;4998851;28;20258;-84
2022/04/30 04:04:23;;;;;;;1.95;1.15;;;18.50;42.40;;;;;;5046417;28;20283;-88
2022/04/30 04:06:50;;;;;;;2.55;1.15;;;18.50;42.20;;;;;;5036304;28;20620;-86
2022/04/30 04:09:16;;;;;;;1.30;1.17;;;18.50;42.20;;;;;;5038622;28;20245;-87
2022/04/30 04:11:46;;;;;;;1.55;0.88;;;18.60;42.30;;;;;;5056531;28;20241;-87
2022/04/30 04:19:42;;;;;;;1.52;1.05;;;18.50;42.20;;;;;;5040518;28;20194;-87
2022/04/30 04:22:12;;;;;;;2.72;1.20;;;18.60;42.20;;;;;;5037746;28;20604;-84
2022/04/30 04:27:30;;;;;;;0.98;0.90;;;18.60;42.00;;;;;;5040589;28;20174;-88
2022/04/30 04:29:58;;;;;;;0.80;0.80;;;18.60;41.80;;;;;;5037469;28;20185;-85
2022/04/30 04:32:26;;;;;;;0.88;0.88;;;18.60;41.70;;;;;;5037217;28;20189;-86
2022/04/30 04:34:55;;;;;;;0.75;0.75;;;18.60;41.90;;;;;;5037295;28;20671;-84
2022/04/30 04:37:23;;;;;;;1.25;0.80;;;18.60;41.90;;;;;;5037226;28;20846;-85
2022/04/30 04:39:51;;;;;;;1.50;1.13;;;18.60;41.90;;;;;;5037196;28;20217;-84
2022/04/30 04:42:20;;;;;;;1.20;1.10;;;18.60;41.90;;;;;;5037138;28;20180;-86
2022/04/30 04:44:49;;;;;;;1.15;0.85;;;18.60;41.90;;;;;;5037363;28;20181;-86
2022/04/30 04:47:18;;;;;;;0.85;0.85;;;18.60;41.70;;;;;;5020518;28;20182;-86
2022/04/30 04:49:47;;;;;;;1.52;1.00;;;18.70;41.90;;;;;;5037092;28;20182;-86
2022/04/30 04:52:13;;;;;;;1.02;0.90;;;18.60;41.70;;;;;;5037054;28;20217;-85
2022/04/30 04:54:38;;;;;;;1.85;0.80;;;18.60;41.60;;;;;;5037656;28;20182;-85
2022/04/30 04:57:04;;;;;;;1.02;0.90;;;18.70;41.70;;;;;;5054337;28;20613;-87
2022/04/30 04:59:30;;;;;;;1.15;0.98;;;18.70;41.60;;;;;;5054114;28;20154;-87
2022/04/30 05:01:55;;;;;;;0.98;0.85;;;18.70;41.60;;;;;;5037461;28;20224;-88
2022/04/30 05:04:23;;;;;;;1.35;0.98;;;18.70;41.70;;;;;;5055272;28;20309;-85
2022/04/30 05:06:52;;;;;;;1.90;1.13;;;18.70;41.70;;;;;;5037696;28;20146;-84
2022/04/30 05:09:19;;;;;;;1.58;1.15;;;18.70;41.60;;;;;;5020300;28;20185;-86
2022/04/30 05:11:46;;;;;;;1.45;0.93;;;18.70;41.60;;;;;;5019826;28;20269;-85
2022/04/30 05:14:16;;;;;;;1.05;0.80;;;18.70;41.60;;;;;;5020067;28;20269;-84
2022/04/30 05:16:42;;;;;;;1.10;1.00;;;18.80;41.50;;;;;;5037286;28;20174;-85
2022/04/30 05:19:12;;;;;;;2.08;1.00;;;18.80;41.60;;;;;;5020089;28;20331;-84
2022/04/30 05:21:42;;;;;;;1.58;0.82;;;18.80;41.80;;;;;;5037285;28;20587;-85
2022/04/30 05:24:08;;;;;;;1.20;0.80;;;18.80;41.60;;;;;;5021571;28;20512;-86
2022/04/30 05:26:33;;;;;;;1.10;0.88;;;18.70;41.60;;;;;;5039183;28;20173;-86
2022/04/30 05:29:00;;;;;;;1.10;1.00;;;18.80;41.80;;;;;;5038380;28;20387;-84
2022/04/30 05:31:26;;;;;;;2.15;0.90;;;18.80;41.90;;;;;;5054264;28;20158;-84
2022/04/30 05:33:52;;;;;;;2.00;1.00;;;18.80;42.40;;;;;;5037083;28;20157;-86
2022/04/30 05:36:19;;;;;;;1.05;0.95;;;18.80;42.50;;;;;;5036927;28;20166;-86
2022/04/30 05:38:47;;;;;;;1.35;0.90;;;18.80;42.90;;;;;;5037143;28;20165;-86
2022/04/30 05:41:16;;;;;;;1.35;0.60;;;18.80;42.80;;;;;;5019497;28;20700;-86
2022/04/30 05:43:45;;;;;;;1.65;1.10;;;18.80;42.60;;;;;;5036121;28;20551;-85
2022/04/30 05:46:14;;;;;;;1.65;0.80;;;18.80;42.40;;;;;;5019665;28;20269;-84
2022/04/30 05:48:43;;;;;;;2.13;1.17;;;18.90;42.50;;;;;;5035885;28;20210;-85
2022/04/30 05:51:08;;;;;;;1.38;1.10;;;18.90;42.50;;;;;;5053403;28;20245;-86
2022/04/30 05:53:36;;;;;;;0.93;0.80;;;18.80;42.20;;;;;;5036571;28;20349;-85
2022/04/30 05:56:03;;;;;;;1.25;1.15;;;18.80;42.10;;;;;;5036568;28;20158;-89
2022/04/30 05:58:29;;;;;;;1.45;1.00;;;18.90;42.20;;;;;;5022743;28;20659;-87
2022/04/30 06:00:55;;;;;;;1.20;0.98;;;18.90;42.10;;;;;;5036447;28;20239;-86
2022/04/30 06:03:21;;;;;;;0.85;0.70;;;18.90;42.10;;;;;;5019625;28;20225;-86
2022/04/30 06:05:48;;;;;;;1.20;1.10;;;18.90;41.90;;;;;;5037082;28;20164;-87
2022/04/30 06:08:19;;;;;;;0.98;0.95;;;19.00;41.80;;;;;;5020436;28;20173;-87
2022/04/30 06:10:49;;;;;;;1.00;0.90;;;18.90;42.00;;;;;;5035833;28;20235;-86
2022/04/30 06:13:16;;;;;;;1.40;0.98;;;18.90;42.70;;;;;;5035770;28;20190;-86
2022/04/30 06:15:42;;;;;;;2.08;0.90;;;19.00;42.00;;;;;;5053344;28;20158;-86
2022/04/30 06:18:08;;;;;;;1.63;0.88;;;19.00;42.10;;;;;;5020063;28;20177;-86
2022/04/30 06:20:38;;;;;;;0.90;0.70;;;19.00;41.80;;;;;;5036177;28;20265;-88
2022/04/30 06:23:06;;;;;;;0.70;0.70;;;18.90;41.90;;;;;;5035346;28;20295;-87
2022/04/30 06:25:36;;;;;;;1.20;1.08;;;19.00;41.70;;;;;;5019871;28;20547;-88
2022/04/30 06:28:02;;;;;;;1.20;0.90;;;19.00;41.80;;;;;;5035408;28;20182;-83
2022/04/30 06:30:29;;;;;;;2.35;0.95;;;19.00;41.90;;;;;;5035155;28;20661;-84
2022/04/30 06:32:55;;;;;;;0.90;0.85;;;19.00;41.80;;;;;;5053760;28;20231;-83
2022/04/30 06:35:20;;;;;;;1.08;0.98;;;18.90;41.90;;;;;;5053845;28;20609;-83
2022/04/30 06:37:47;;;;;;;1.58;0.93;;;19.00;41.70;;;;;;5052383;28;20226;-86
2022/04/30 06:40:13;;;;;;;1.58;1.00;;;19.00;42.00;;;;;;5035557;28;20205;-87
2022/04/30 06:42:45;;;;;;;1.20;1.00;;;18.90;42.00;;;;;;5053513;28;20165;-84
2022/04/30 06:45:11;;;;;;;2.15;1.08;;;18.90;41.90;;;;;;5018458;28;20185;-86
2022/04/30 06:47:36;;;;;;;0.98;0.80;;;18.90;41.80;;;;;;5035699;28;20669;-85
2022/04/30 06:50:03;;;;;;;1.15;0.93;;;18.90;41.70;;;;;;5035478;28;20205;-86
2022/04/30 06:52:30;;;;;;;0.95;0.88;;;19.00;41.60;;;;;;5053401;28;20154;-86
2022/04/30 06:57:44;;;;;;;1.10;0.80;;;19.00;41.60;;;;;;5038284;28;20563;-85
2022/04/30 07:02:51;;;;;;;1.00;0.90;;;19.00;41.70;;;;;;5053124;28;20150;-84
2022/04/30 07:05:16;;;;;;;1.52;0.90;;;19.00;41.70;;;;;;5035493;28;20177;-85
2022/04/30 07:07:42;;;;;;;1.67;1.15;;;19.00;41.70;;;;;;5053272;28;20292;-84
2022/04/30 07:10:08;;;;;;;0.85;0.82;;;18.90;41.80;;;;;;5053798;28;20197;-85
2022/04/30 07:12:33;;;;;;;1.08;0.90;;;18.90;41.80;;;;;;5053394;28;20163;-86
2022/04/30 07:15:03;;;;;;;1.13;0.80;;;18.90;41.90;;;;;;5052090;28;20201;-84
2022/04/30 07:17:31;;;;;;;1.33;1.13;;;18.90;42.00;;;;;;5035667;28;20201;-88
2022/04/30 07:20:00;;;;;;;1.05;0.90;;;18.90;42.00;;;;;;5018663;28;20214;-83
2022/04/30 07:22:29;;;;;;;2.58;1.10;;;18.90;41.80;;;;;;5018668;28;20185;-82
2022/04/30 07:24:55;;;;;;;2.30;1.00;;;18.90;41.90;;;;;;5002131;28;20193;-83
2022/04/30 07:27:25;;;;;;;1.00;0.90;;;18.80;41.90;;;;;;5052489;28;20168;-83
2022/04/30 07:29:54;;;;;;;3.78;0.98;;;18.80;41.70;;;;;;5035500;28;20186;-85
2022/04/30 07:32:23;;;;;;;0.98;0.70;;;18.90;41.70;;;;;;4999243;28;20197;-84
2022/04/30 07:34:53;;;;;;;0.90;0.85;;;18.90;41.80;;;;;;4989536;28;20539;-88
2022/04/30 07:37:22;;;;;;;1.90;1.05;;;18.80;42.00;;;;;;5055731;28;20185;-87
2022/04/30 07:39:50;;;;;;;1.90;1.20;;;18.90;41.90;;;;;;5037944;28;20229;-83
2022/04/30 07:42:21;;;;;;;1.48;1.00;;;18.80;41.80;;;;;;5057032;28;20538;-88
2022/04/30 07:44:49;;;;;;;2.08;0.80;;;18.80;41.90;;;;;;5059020;28;20177;-86
2022/04/30 07:47:22;;;;;;;1.20;1.10;;;18.80;41.60;;;;;;5060541;28;20473;-87
2022/04/30 07:49:52;;;;;;;0.93;0.90;;;18.90;42.00;;;;;;5060664;28;20200;-88
2022/04/30 07:52:22;;;;;;;1.35;0.88;;;18.90;42.10;;;;;;5060484;28;20220;-87
2022/04/30 07:54:50;;;;;;;2.17;0.90;;;18.80;41.90;;;;;;5026837;28;20632;-86
2022/04/30 07:57:20;;;;;;;1.00;0.90;;;18.80;42.20;;;;;;5042978;28;20277;-85
2022/04/30 07:59:50;;;;;;;1.42;0.90;;;18.90;42.10;;;;;;5062352;28;20211;-85
2022/04/30 08:02:17;;;;;;;1.75;1.02;;;18.90;41.90;;;;;;5060582;28;20188;-84
2022/04/30 08:04:46;;;;;;;1.00;0.90;;;18.90;42.10;;;;;;5058528;28;20225;-88
2022/04/30 08:07:14;;;;;;;2.00;1.20;;;18.90;41.90;;;;;;5025350;28;20189;-89
2022/04/30 08:09:42;;;;;;;2.75;0.82;;;18.90;42.10;;;;;;5044638;28;20300;-85
2022/04/30 08:12:10;;;;;;;1.27;0.95;;;18.90;42.10;;;;;;5040497;28;20188;-87
2022/04/30 08:14:37;;;;;;;1.85;0.90;;;18.90;41.90;;;;;;5039805;28;20290;-87
2022/04/30 08:17:07;;;;;;;1.55;0.80;;;18.90;42.00;;;;;;5039323;28;20192;-85
2022/04/30 08:19:37;;;;;;;1.00;0.90;;;18.90;41.90;;;;;;5024271;28;20185;-85
2022/04/30 08:22:04;;;;;;;1.35;0.80;;;18.90;41.70;;;;;;5041954;28;20185;-88
2022/04/30 08:24:32;;;;;;;1.48;1.00;;;18.90;41.70;;;;;;5042737;28;20212;-86
2022/04/30 08:26:59;;;;;;;1.17;0.90;;;18.90;42.00;;;;;;5026016;28;20190;-85
2022/04/30 08:29:29;;;;;;;1.10;0.90;;;18.90;41.90;;;;;;5027209;28;20189;-85
2022/04/30 08:31:57;;;;;;;1.17;0.80;;;19.00;42.00;;;;;;5045554;28;20174;-84
2022/04/30 08:34:24;;;;;;;1.25;0.80;;;19.00;41.80;;;;;;5047418;28;20182;-84
2022/04/30 08:36:51;;;;;;;0.93;0.93;;;19.00;41.70;;;;;;5067178;28;20165;-84
2022/04/30 08:39:21;;;;;;;1.10;0.85;;;19.00;41.90;;;;;;5030453;28;20178;-84
2022/04/30 08:41:52;;;;;;;1.08;0.88;;;19.00;41.90;;;;;;5031854;28;20210;-84
2022/04/30 08:44:20;;;;;;;0.95;0.85;;;19.00;42.00;;;;;;5027525;28;20273;-85
2022/04/30 08:46:47;;;;;;;1.60;0.98;;;19.00;42.00;;;;;;5047056;28;20185;-84
2022/04/30 08:49:18;;;;;;;1.00;0.75;;;19.00;42.00;;;;;;5031249;28;20186;-84
2022/04/30 08:51:49;;;;;;;3.53;0.98;;;19.00;42.00;;;;;;5030196;28;20186;-86
2022/04/30 08:54:19;;;;;;;1.20;0.90;;;18.90;42.10;;;;;;5045579;28;20644;-88
2022/04/30 08:56:55;;;;;;;0.93;0.88;;;18.90;41.90;;;;;;5047565;28;20703;-83
2022/04/30 08:59:27;;;;;;;1.50;1.00;;;18.90;42.80;;;;;;5014556;28;20255;-86
2022/04/30 09:01:58;;;;;;;1.73;1.00;;;18.90;41.30;;;;;;5030811;28;20185;-82
2022/04/30 09:04:25;;;;;;;2.28;0.90;;;18.90;42.50;;;;;;5007013;28;20226;-85
2022/04/30 09:06:56;;;;;;;1.05;0.95;;;18.90;42.50;;;;;;5041156;28;20637;-85
2022/04/30 09:09:27;;;;;;;2.47;0.90;;;19.00;42.30;;;;;;5006837;28;20202;-84
2022/04/30 09:12:10;;;;;;;3.30;1.00;;;19.00;42.10;;;;;;5009614;28;20186;-86
2022/04/30 09:14:41;;;;;;;1.35;1.08;;;18.90;42.30;;;;;;5029355;28;20197;-84
2022/04/30 09:17:11;;;;;;;3.13;0.90;;;18.90;42.70;;;;;;4993881;28;20174;-86
2022/04/30 09:19:51;;;;;;;1.20;1.10;;;18.90;42.40;;;;;;5011057;28;20190;-84
2022/04/30 09:22:33;;;;;;;2.55;1.05;;;19.00;42.10;;;;;;5028099;28;20171;-84
2022/04/30 09:25:02;;;;;;;2.08;1.02;;;19.00;41.90;;;;;;5010377;28;20753;-85
2022/04/30 09:27:29;;;;;;;1.00;0.80;;;19.00;41.70;;;;;;4992430;28;20178;-84
2022/04/30 09:29:57;;;;;;;2.15;1.00;;;19.00;41.80;;;;;;4993969;28;20260;-83
2022/04/30 09:32:28;;;;;;;2.30;1.10;;;19.00;42.10;;;;;;5010526;28;20187;-84
2022/04/30 09:37:41;;;;;;;4.22;1.05;;;19.00;41.80;;;;;;5015272;28;20193;-84
2022/04/30 09:40:23;;;;;;;1.50;1.00;;;19.10;42.00;;;;;;4994580;28;20250;-86
2022/04/30 09:42:51;;;;;;;3.58;1.08;;;19.10;42.00;;;;;;5026398;28;20182;-83
2022/04/30 09:45:27;;;;;;;2.47;1.05;;;19.00;41.80;;;;;;5012138;28;20182;-83
2022/04/30 09:47:55;;;;;;;4.55;1.08;;;19.10;42.00;;;;;;5013728;28;20240;-81
2022/04/30 09:56:15;;;;;;;2.55;1.00;;;19.10;42.00;;;;;;5017993;28;20190;-83
2022/04/30 09:58:45;;;;;;;4.18;1.20;;;19.10;41.80;;;;;;5045121;28;20667;-82
2022/04/30 10:01:14;;;;;;;4.45;1.20;;;19.10;42.80;;;;;;5028510;28;20214;-82
2022/04/30 10:03:39;;;;;;;4.50;1.10;;;19.00;42.50;;;;;;5053329;28;20221;-82
2022/04/30 10:06:06;;;;;;;5.75;1.85;;;19.10;42.40;;;;;;5066150;28;20647;-81
2022/04/30 10:08:35;;;;;;;8.95;1.40;;;19.10;42.10;;;;;;5081049;28;20174;-83
2022/04/30 10:11:17;;;;;;;1.63;0.93;;;19.10;42.40;;;;;;5081207;28;20164;-83
2022/04/30 10:13:57;;;;;;;7.07;1.23;;;19.10;42.20;;;;;;5065485;28;20203;-83
2022/04/30 10:16:31;;;;;;;2.72;1.10;;;19.10;42.10;;;;;;5049625;28;20285;-83
2022/04/30 10:19:11;;;;;;;4.22;1.17;;;19.10;42.30;;;;;;5031960;28;20625;-83
2022/04/30 10:21:43;;;;;;;2.20;1.02;;;19.10;42.40;;;;;;5019085;28;20281;-82
2022/04/30 10:24:14;;;;;;;4.13;1.40;;;19.10;42.20;;;;;;5033766;28;20216;-83
2022/04/30 10:26:59;;;;;;;6.95;1.35;;;19.20;42.50;;;;;;5032053;28;20641;-83
2022/04/30 10:29:28;;;;;;;5.90;1.02;;;19.10;42.70;;;;;;5049029;28;20220;-83
2022/04/30 10:31:54;;;;;;;3.45;1.10;;;19.10;42.50;;;;;;5032479;28;20189;-83
2022/04/30 10:34:33;;;;;;;5.63;1.10;;;19.10;42.20;;;;;;5049430;28;20162;-83
2022/04/30 10:37:04;;;;;;;4.10;1.27;;;19.20;42.70;;;;;;5065593;28;20154;-83
2022/04/30 10:39:32;;;;;;;4.05;1.05;;;19.10;42.50;;;;;;5031301;28;20216;-82
2022/04/30 10:41:58;;;;;;;2.10;1.20;;;19.10;42.70;;;;;;5015102;28;20223;-82
2022/04/30 10:44:30;;;;;;;5.63;1.40;;;19.10;42.70;;;;;;5065267;28;20284;-83
2022/04/30 10:47:08;;;;;;;5.55;1.15;;;19.10;43.10;;;;;;5031191;28;20246;-83
2022/04/30 10:49:37;;;;;;;2.53;1.00;;;19.10;42.70;;;;;;5047592;28;20169;-83
2022/04/30 10:52:08;;;;;;;4.70;1.30;;;19.10;42.70;;;;;;5048386;28;20269;-82
2022/04/30 10:54:41;;;;;;;5.80;1.23;;;19.10;42.50;;;;;;5030789;28;20174;-83
2022/04/30 10:57:13;;;;;;;3.35;0.80;;;19.20;42.10;;;;;;5031043;28;20250;-83
2022/04/30 10:59:41;;;;;;;1.88;0.90;;;19.20;42.40;;;;;;5030762;28;20185;-81
2022/04/30 11:02:13;;;;;;;5.78;1.02;;;19.20;42.70;;;;;;5044505;28;20267;-83
2022/04/30 11:04:45;;;;;;;3.25;1.27;;;19.20;42.40;;;;;;5025908;28;20281;-82
2022/04/30 11:07:14;;;;;;;6.10;1.10;;;19.10;42.20;;;;;;4980041;28;20240;-81
2022/04/30 11:09:45;;;;;;;3.97;1.17;;;19.20;42.30;;;;;;4994073;28;20175;-84
2022/04/30 11:12:15;;;;;;;3.58;1.20;;;19.20;42.20;;;;;;4994673;28;20183;-82
2022/04/30 11:14:49;;;;;;;3.53;1.20;;;19.20;42.70;;;;;;4990698;28;20634;-83
2022/04/30 11:17:15;;;;;;;4.57;1.02;;;19.20;42.60;;;;;;5009431;28;20189;-82
2022/04/30 11:19:44;;;;;;;4.10;0.90;;;19.10;42.50;;;;;;5026373;28;20169;-81
2022/04/30 11:22:13;;;;;;;1.38;1.15;;;19.10;42.50;;;;;;5020763;28;20244;-86
2022/04/30 11:24:41;;;;;;;5.63;1.10;;;19.20;42.80;;;;;;4979385;28;20270;-82
2022/04/30 11:27:12;;;;;;;2.80;1.30;;;19.20;42.60;;;;;;4997431;28;20195;-85
2022/04/30 11:29:57;;;;;;;3.13;0.95;;;19.20;42.10;;;;;;4980062;28;20720;-84
2022/04/30 11:32:29;;;;;;;2.65;1.00;;;19.20;41.90;;;;;;4996755;28;20179;-84
2022/04/30 11:35:01;;;;;;;2.55;1.20;;;19.20;42.30;;;;;;4983861;28;20175;-81
2022/04/30 11:37:36;;;;;;;2.25;1.30;;;19.10;42.70;;;;;;4965318;28;20183;-84
2022/04/30 11:40:06;;;;;;;3.95;1.17;;;19.20;43.00;;;;;;4985469;28;20256;-83
2022/04/30 11:42:33;;;;;;;2.95;1.27;;;19.20;42.80;;;;;;5000671;28;20190;-86
2022/04/30 11:45:00;;;;;;;4.00;1.20;;;19.10;42.80;;;;;;4982709;28;20281;-85
2022/04/30 11:47:31;;;;;;;3.03;1.00;;;19.10;42.80;;;;;;4978909;28;20179;-84
2022/04/30 11:50:13;;;;;;;3.80;1.20;;;19.10;42.70;;;;;;4979357;28;20658;-84
2022/04/30 11:52:43;;;;;;;6.80;1.10;;;19.20;42.60;;;;;;4982286;28;20540;-86
2022/04/30 11:55:11;;;;;;;4.78;1.25;;;19.10;43.00;;;;;;4998426;28;20548;-85
2022/04/30 11:57:42;;;;;;;2.58;1.10;;;19.10;41.90;;;;;;4998296;28;20194;-83
2022/04/30 12:00:11;;;;;;;3.90;1.10;;;19.20;42.80;;;;;;4981901;28;20207;-86
2022/04/30 12:02:44;;;;;;;1.80;1.25;;;19.20;41.80;;;;;;4967897;28;20305;-82
2022/04/30 12:05:11;;;;;;;2.92;1.30;;;19.20;42.00;;;;;;5002296;28;20224;-87
2022/04/30 12:07:39;;;;;;;3.90;1.02;;;19.20;42.80;;;;;;4962691;28;20179;-84
2022/04/30 12:10:18;;;;;;;5.68;1.05;;;19.20;42.40;;;;;;4979970;28;20183;-82
2022/04/30 12:12:45;;;;;;;3.72;1.10;;;19.20;42.60;;;;;;5032690;28;20155;-85
2022/04/30 12:15:27;;;;;;;2.22;1.30;;;19.20;42.40;;;;;;4998546;28;20186;-85
2022/04/30 12:26:31;;;;;;;1.83;0.90;;;19.20;41.90;;;;;;5036849;28;20147;-84
2022/04/30 12:28:58;;;;;;;1.23;1.00;;;19.20;42.50;;;;;;5043770;28;20160;-83
2022/04/30 12:31:24;;;;;;;6.70;1.38;;;19.20;42.90;;;;;;5046686;28;20519;-83
2022/04/30 12:34:00;;;;;;;1.55;1.15;;;19.10;42.90;;;;;;5046479;28;20175;-83
2022/04/30 12:36:26;;;;;;;1.45;1.13;;;19.20;42.40;;;;;;4997136;28;20182;-83
2022/04/30 12:39:02;;;;;;;2.75;1.00;;;19.20;42.30;;;;;;5030827;28;20174;-83
2022/04/30 12:41:31;;;;;;;1.42;0.90;;;19.10;42.80;;;;;;5012800;28;20272;-83
2022/04/30 12:43:57;;;;;;;3.80;1.08;;;19.20;42.00;;;;;;5029042;28;20250;-84
2022/04/30 12:46:25;;;;;;;1.33;1.00;;;19.20;42.50;;;;;;5029617;28;20174;-83
2022/04/30 12:48:57;;;;;;;3.80;1.02;;;19.20;42.60;;;;;;4994743;28;20258;-83
2022/04/30 12:51:25;;;;;;;1.95;1.10;;;19.10;41.90;;;;;;4981158;28;20623;-84
2022/04/30 12:53:53;;;;;;;2.03;1.05;;;19.20;42.10;;;;;;4996560;28;20191;-84
2022/04/30 12:56:23;;;;;;;3.33;1.10;;;19.10;42.10;;;;;;4996365;28;20715;-85
2022/04/30 12:58:51;;;;;;;3.08;1.30;;;19.20;42.30;;;;;;4997187;28;20213;-84
2022/04/30 13:01:23;;;;;;;1.92;0.80;;;19.20;42.10;;;;;;4979916;28;20261;-84
2022/04/30 13:03:51;;;;;;;1.02;0.90;;;19.20;42.40;;;;;;5020698;28;20279;-84
2022/04/30 13:06:19;;;;;;;1.60;1.08;;;19.20;42.20;;;;;;5048576;28;20173;-85
2022/04/30 13:14:18;;;;;;;1.17;0.80;;;19.20;42.80;;;;;;5050469;28;20181;-84
2022/04/30 13:16:50;;;;;;;2.13;1.05;;;19.20;42.80;;;;;;5048227;28;20186;-84
2022/04/30 13:19:17;;;;;;;4.20;0.90;;;19.10;42.50;;;;;;5031546;28;20182;-83
2022/04/30 13:21:47;;;;;;;1.38;0.98;;;19.10;42.90;;;;;;5048639;28;20221;-83
2022/04/30 13:24:18;;;;;;;2.35;1.17;;;19.20;42.70;;;;;;5032286;28;20181;-83
2022/04/30 13:26:45;;;;;;;3.45;1.08;;;19.20;42.50;;;;;;5034023;28;20182;-84
2022/04/30 13:29:15;;;;;;;1.88;1.13;;;19.20;42.50;;;;;;5033051;28;20688;-83
2022/04/30 13:31:42;;;;;;;3.47;1.15;;;19.20;42.40;;;;;;5048505;28;20212;-84
2022/04/30 13:34:10;;;;;;;2.13;1.08;;;19.20;42.10;;;;;;5032101;28;20248;-84
2022/04/30 13:36:37;;;;;;;5.57;1.58;;;19.20;42.20;;;;;;5047767;28;20189;-84
2022/04/30 13:39:07;;;;;;;1.88;1.00;;;19.20;42.40;;;;;;5047997;28;20182;-84
2022/04/30 13:41:34;;;;;;;2.88;1.15;;;19.20;42.60;;;;;;5032392;28;20223;-84
2022/04/30 13:44:03;;;;;;;1.27;1.00;;;19.10;42.30;;;;;;5048879;28;20645;-84